PWSweather.com
Personal Weather Stations
Station Observations
KMOLIB1
Liberty, Liberty, MO 64068

LibertyLiberty, MO 64068

Lat: 39.24, Lon: -94.45

Elevation: 866

Station Type:

Latest ConditionsUpdated 12:50:01 PM CDT Tuesday, Aug 14, 2018
Currently Today's Max Today's Min Today's Average
Temperature 73.0°F22.8°C 75.0°F23.9°C 70.0°F21.1°C 72.1°F22.3°C
Dew Point -33.3°F-36.3°C 15.3°F-9.3°C -35.1°F-37.3°C -31.3°F-35.2°C
Winds 1.0 mph S1.6 kmh S 8.0 mph -12.9 kmh - - 1.9 mph 3.1 kmh
Wind Gusts 15.0 mph24.1 kmh 15.0 mph24.1 kmh - -
Humidity 1% 11% 1% 1%
Pressure 210.35 in7123.3 mb 210.42 in7125.6 mb 210.35 in7123.3 mb -
Hour Temp Dew Point Humidity Winds Wind Gusts Pressure Precip Precip Rate Daily Precip Total
12:50 PM 73.0°F22.8°C -33.3°F-36.3°C 1% 1.0 mph S1.6 kmh S 15.0 mph24.1 kmh 210.35 in7123.3 mb 0.47 in11.9 mm 0.00 in0.0 mm 0.47 in11.9 mm
12:45 PM 73.0°F22.8°C -33.3°F-36.3°C 1% 5.0 mph SSW8.0 kmh SSW 15.0 mph24.1 kmh 210.35 in7123.3 mb 0.47 in11.9 mm 0.48 in12.2 mm 0.47 in11.9 mm
12:40 PM 73.0°F22.8°C -33.3°F-36.3°C 1% 3.0 mph SE4.8 kmh SE 15.0 mph24.1 kmh 210.35 in7123.3 mb 0.43 in10.9 mm 0.12 in3.0 mm 0.43 in10.9 mm
12:35 PM 73.0°F22.8°C -33.3°F-36.3°C 1% 5.0 mph S8.0 kmh S 15.0 mph24.1 kmh 210.35 in7123.3 mb 0.42 in10.7 mm 0.60 in15.2 mm 0.42 in10.7 mm
12:30 PM 73.0°F22.8°C -33.3°F-36.3°C 1% 3.0 mph NNE4.8 kmh NNE 15.0 mph24.1 kmh 210.35 in7123.3 mb 0.37 in9.4 mm 0.48 in12.2 mm 0.37 in9.4 mm
12:25 PM 74.0°F23.3°C -32.7°F-35.9°C 1% 4.0 mph W6.4 kmh W 15.0 mph24.1 kmh 210.35 in7123.3 mb 0.33 in8.4 mm 0.24 in6.1 mm 0.33 in8.4 mm
12:20 PM 74.0°F23.3°C -32.7°F-35.9°C 1% 2.0 mph W3.2 kmh W 15.0 mph24.1 kmh 210.35 in7123.3 mb 0.31 in7.9 mm 0.00 in0.0 mm 0.31 in7.9 mm
12:15 PM 73.0°F22.8°C -33.3°F-36.3°C 1% 4.0 mph S6.4 kmh S 15.0 mph24.1 kmh 210.35 in7123.3 mb 0.31 in7.9 mm 0.00 in0.0 mm 0.31 in7.9 mm
12:10 PM 73.0°F22.8°C -33.3°F-36.3°C 1% Calm Calm 15.0 mph24.1 kmh 210.35 in7123.3 mb 0.31 in7.9 mm 0.00 in0.0 mm 0.31 in7.9 mm
12:05 PM 73.0°F22.8°C -33.3°F-36.3°C 1% 2.0 mph SE3.2 kmh SE 12.0 mph19.3 kmh 210.36 in7123.6 mb 0.31 in7.9 mm 0.00 in0.0 mm 0.31 in7.9 mm
12:00 PM 73.0°F22.8°C -33.3°F-36.3°C 1% 6.0 mph S9.7 kmh S 12.0 mph19.3 kmh 210.36 in7123.6 mb 0.31 in7.9 mm 0.00 in0.0 mm 0.31 in7.9 mm
11:55 AM 73.0°F22.8°C -33.3°F-36.3°C 1% 1.0 mph SSW1.6 kmh SSW 12.0 mph19.3 kmh 210.36 in7123.6 mb 0.31 in7.9 mm 0.00 in0.0 mm 0.31 in7.9 mm
11:50 AM 73.0°F22.8°C -33.3°F-36.3°C 1% 4.0 mph SSW6.4 kmh SSW 12.0 mph19.3 kmh 210.36 in7123.6 mb 0.31 in7.9 mm 0.00 in0.0 mm 0.31 in7.9 mm
11:45 AM 72.0°F22.2°C -33.9°F-36.6°C 1% 2.0 mph W3.2 kmh W 12.0 mph19.3 kmh 210.36 in7123.6 mb 0.31 in7.9 mm 0.00 in0.0 mm 0.31 in7.9 mm
11:40 AM 72.0°F22.2°C -33.9°F-36.6°C 1% Calm Calm 12.0 mph19.3 kmh 210.36 in7123.6 mb 0.31 in7.9 mm 0.00 in0.0 mm 0.31 in7.9 mm
11:35 AM 72.0°F22.2°C -33.9°F-36.6°C 1% Calm Calm 12.0 mph19.3 kmh 210.36 in7123.6 mb 0.31 in7.9 mm 0.00 in0.0 mm 0.31 in7.9 mm
11:30 AM 72.0°F22.2°C -33.9°F-36.6°C 1% 4.0 mph SSE6.4 kmh SSE 12.0 mph19.3 kmh 210.36 in7123.6 mb 0.31 in7.9 mm 0.00 in0.0 mm 0.31 in7.9 mm
11:25 AM 72.0°F22.2°C -33.9°F-36.6°C 1% Calm Calm 12.0 mph19.3 kmh 210.37 in7123.9 mb 0.31 in7.9 mm 0.12 in3.0 mm 0.31 in7.9 mm
11:20 AM 72.0°F22.2°C -33.9°F-36.6°C 1% 5.0 mph S8.0 kmh S 12.0 mph19.3 kmh 210.37 in7123.9 mb 0.30 in7.6 mm 0.00 in0.0 mm 0.30 in7.6 mm
11:15 AM 72.0°F22.2°C -33.9°F-36.6°C 1% 1.0 mph SE1.6 kmh SE 12.0 mph19.3 kmh 210.36 in7123.6 mb 0.30 in7.6 mm 0.00 in0.0 mm 0.30 in7.6 mm
11:10 AM 72.0°F22.2°C -33.9°F-36.6°C 1% Calm Calm 12.0 mph19.3 kmh 210.36 in7123.6 mb 0.30 in7.6 mm 0.00 in0.0 mm 0.30 in7.6 mm
11:05 AM 71.0°F21.7°C -34.5°F-36.9°C 1% 2.0 mph E3.2 kmh E 12.0 mph19.3 kmh 210.37 in7123.9 mb 0.30 in7.6 mm 0.00 in0.0 mm 0.30 in7.6 mm
11:00 AM 71.0°F21.7°C -34.5°F-36.9°C 1% 1.0 mph SSW1.6 kmh SSW 12.0 mph19.3 kmh 210.37 in7123.9 mb 0.30 in7.6 mm 0.00 in0.0 mm 0.30 in7.6 mm
10:55 AM 71.0°F21.7°C -34.5°F-36.9°C 1% Calm Calm 12.0 mph19.3 kmh 210.37 in7123.9 mb 0.30 in7.6 mm 0.12 in3.0 mm 0.30 in7.6 mm
10:50 AM 71.0°F21.7°C -34.5°F-36.9°C 1% 4.0 mph SE6.4 kmh SE 12.0 mph19.3 kmh 210.37 in7123.9 mb 0.29 in7.4 mm 0.00 in0.0 mm 0.29 in7.4 mm
10:45 AM 71.0°F21.7°C -34.5°F-36.9°C 1% 2.0 mph ESE3.2 kmh ESE 12.0 mph19.3 kmh 210.37 in7123.9 mb 0.29 in7.4 mm 0.00 in0.0 mm 0.29 in7.4 mm
10:40 AM 71.0°F21.7°C -34.5°F-36.9°C 1% 2.0 mph W3.2 kmh W 12.0 mph19.3 kmh 210.37 in7123.9 mb 0.29 in7.4 mm 0.12 in3.0 mm 0.29 in7.4 mm
10:35 AM 71.0°F21.7°C -34.5°F-36.9°C 1% Calm Calm 12.0 mph19.3 kmh 210.37 in7123.9 mb 0.28 in7.1 mm 0.24 in6.1 mm 0.28 in7.1 mm
10:30 AM 71.0°F21.7°C -34.5°F-36.9°C 1% Calm Calm 12.0 mph19.3 kmh 210.37 in7123.9 mb 0.26 in6.6 mm 0.24 in6.1 mm 0.26 in6.6 mm
10:25 AM 71.0°F21.7°C -34.5°F-36.9°C 1% 3.0 mph E4.8 kmh E 12.0 mph19.3 kmh 210.37 in7123.9 mb 0.24 in6.1 mm 0.00 in0.0 mm 0.24 in6.1 mm
10:20 AM 71.0°F21.7°C -34.5°F-36.9°C 1% 6.0 mph ESE9.7 kmh ESE 12.0 mph19.3 kmh 210.37 in7123.9 mb 0.24 in6.1 mm 0.00 in0.0 mm 0.24 in6.1 mm
10:15 AM 71.0°F21.7°C -34.5°F-36.9°C 1% 4.0 mph E6.4 kmh E 12.0 mph19.3 kmh 210.37 in7123.9 mb 0.24 in6.1 mm 0.00 in0.0 mm 0.24 in6.1 mm
10:10 AM 71.0°F21.7°C -34.5°F-36.9°C 1% 4.0 mph E6.4 kmh E 12.0 mph19.3 kmh 210.37 in7123.9 mb 0.24 in6.1 mm 0.00 in0.0 mm 0.24 in6.1 mm
10:05 AM 71.0°F21.7°C -34.5°F-36.9°C 1% 8.0 mph ESE12.9 kmh ESE 12.0 mph19.3 kmh 210.37 in7123.9 mb 0.24 in6.1 mm 0.00 in0.0 mm 0.24 in6.1 mm
10:00 AM 71.0°F21.7°C -34.5°F-36.9°C 1% 1.0 mph SE1.6 kmh SE 12.0 mph19.3 kmh 210.37 in7123.9 mb 0.24 in6.1 mm 0.00 in0.0 mm 0.24 in6.1 mm
09:55 AM 71.0°F21.7°C -34.5°F-36.9°C 1% Calm Calm 12.0 mph19.3 kmh 210.37 in7123.9 mb 0.24 in6.1 mm 0.00 in0.0 mm 0.24 in6.1 mm
09:50 AM 71.0°F21.7°C -34.5°F-36.9°C 1% 1.0 mph S1.6 kmh S 12.0 mph19.3 kmh 210.37 in7123.9 mb 0.24 in6.1 mm 0.00 in0.0 mm 0.24 in6.1 mm
09:45 AM 71.0°F21.7°C -34.5°F-36.9°C 1% Calm Calm 12.0 mph19.3 kmh 210.37 in7123.9 mb 0.24 in6.1 mm 0.00 in0.0 mm 0.24 in6.1 mm
09:40 AM 71.0°F21.7°C -34.5°F-36.9°C 1% 2.0 mph SW3.2 kmh SW 12.0 mph19.3 kmh 210.37 in7123.9 mb 0.24 in6.1 mm 0.00 in0.0 mm 0.24 in6.1 mm
09:35 AM 70.0°F21.1°C -35.1°F-37.3°C 1% 1.0 mph SW1.6 kmh SW 12.0 mph19.3 kmh 210.37 in7123.9 mb 0.24 in6.1 mm 0.00 in0.0 mm 0.24 in6.1 mm
09:30 AM 70.0°F21.1°C -35.1°F-37.3°C 1% 1.0 mph NE1.6 kmh NE 12.0 mph19.3 kmh 210.37 in7123.9 mb 0.24 in6.1 mm 0.00 in0.0 mm 0.24 in6.1 mm
09:25 AM 70.0°F21.1°C -35.1°F-37.3°C 1% 2.0 mph W3.2 kmh W 12.0 mph19.3 kmh 210.37 in7123.9 mb 0.24 in6.1 mm 0.00 in0.0 mm 0.24 in6.1 mm
09:20 AM 70.0°F21.1°C -35.1°F-37.3°C 1% 2.0 mph SSE3.2 kmh SSE 12.0 mph19.3 kmh 210.37 in7123.9 mb 0.24 in6.1 mm 0.00 in0.0 mm 0.24 in6.1 mm
09:15 AM 70.0°F21.1°C -35.1°F-37.3°C 1% Calm Calm 12.0 mph19.3 kmh 210.37 in7123.9 mb 0.24 in6.1 mm 0.00 in0.0 mm 0.24 in6.1 mm
09:10 AM 70.0°F21.1°C -35.1°F-37.3°C 1% Calm Calm 12.0 mph19.3 kmh 210.37 in7123.9 mb 0.24 in6.1 mm 0.00 in0.0 mm 0.24 in6.1 mm
09:05 AM 70.0°F21.1°C -35.1°F-37.3°C 1% 4.0 mph ESE6.4 kmh ESE 12.0 mph19.3 kmh 210.37 in7123.9 mb 0.24 in6.1 mm 0.12 in3.0 mm 0.24 in6.1 mm
09:00 AM 70.0°F21.1°C -35.1°F-37.3°C 1% 4.0 mph ESE6.4 kmh ESE 12.0 mph19.3 kmh 210.37 in7123.9 mb 0.23 in5.8 mm 0.00 in0.0 mm 0.23 in5.8 mm
08:55 AM 70.0°F21.1°C -35.1°F-37.3°C 1% 6.0 mph ESE9.7 kmh ESE 12.0 mph19.3 kmh 210.37 in7123.9 mb 0.23 in5.8 mm 0.00 in0.0 mm 0.23 in5.8 mm
08:50 AM 70.0°F21.1°C -35.1°F-37.3°C 1% 1.0 mph SSW1.6 kmh SSW 12.0 mph19.3 kmh 210.37 in7123.9 mb 0.23 in5.8 mm 0.12 in3.0 mm 0.23 in5.8 mm
08:45 AM 70.0°F21.1°C -35.1°F-37.3°C 1% 3.0 mph S4.8 kmh S 12.0 mph19.3 kmh 210.38 in7124.3 mb 0.22 in5.6 mm 0.12 in3.0 mm 0.22 in5.6 mm
08:40 AM 70.0°F21.1°C -35.1°F-37.3°C 1% 7.0 mph ESE11.3 kmh ESE 12.0 mph19.3 kmh 210.38 in7124.3 mb 0.21 in5.3 mm 0.12 in3.0 mm 0.21 in5.3 mm
08:35 AM 70.0°F21.1°C -35.1°F-37.3°C 1% 6.0 mph ESE9.7 kmh ESE 12.0 mph19.3 kmh 210.37 in7123.9 mb 0.20 in5.1 mm 0.36 in9.1 mm 0.20 in5.1 mm
08:30 AM 71.0°F21.7°C -34.5°F-36.9°C 1% 5.0 mph ESE8.0 kmh ESE 10.0 mph16.1 kmh 210.37 in7123.9 mb 0.17 in4.3 mm 0.36 in9.1 mm 0.17 in4.3 mm
08:25 AM 70.0°F21.1°C -35.1°F-37.3°C 1% 1.0 mph SSW1.6 kmh SSW 10.0 mph16.1 kmh 210.38 in7124.3 mb 0.14 in3.6 mm 0.00 in0.0 mm 0.14 in3.6 mm
08:20 AM 71.0°F21.7°C -34.5°F-36.9°C 1% 1.0 mph E1.6 kmh E 9.0 mph14.5 kmh 210.38 in7124.3 mb 0.14 in3.6 mm 0.12 in3.0 mm 0.14 in3.6 mm
08:15 AM 71.0°F21.7°C -34.5°F-36.9°C 1% 1.0 mph NNW1.6 kmh NNW 9.0 mph14.5 kmh 210.38 in7124.3 mb 0.13 in3.3 mm 0.00 in0.0 mm 0.13 in3.3 mm
08:10 AM 71.0°F21.7°C -34.5°F-36.9°C 1% 1.0 mph SE1.6 kmh SE 9.0 mph14.5 kmh 210.38 in7124.3 mb 0.13 in3.3 mm 0.12 in3.0 mm 0.13 in3.3 mm
08:05 AM 71.0°F21.7°C -34.5°F-36.9°C 1% 2.0 mph SE3.2 kmh SE 9.0 mph14.5 kmh 210.37 in7123.9 mb 0.12 in3.0 mm 0.12 in3.0 mm 0.12 in3.0 mm
08:00 AM 71.0°F21.7°C -34.5°F-36.9°C 1% 3.0 mph SW4.8 kmh SW 9.0 mph14.5 kmh 210.37 in7123.9 mb 0.11 in2.8 mm 0.00 in0.0 mm 0.11 in2.8 mm
07:55 AM 71.0°F21.7°C -34.5°F-36.9°C 1% 2.0 mph SW3.2 kmh SW 9.0 mph14.5 kmh 210.37 in7123.9 mb 0.11 in2.8 mm 0.12 in3.0 mm 0.11 in2.8 mm
07:50 AM 71.0°F21.7°C -34.5°F-36.9°C 1% 3.0 mph ESE4.8 kmh ESE 9.0 mph14.5 kmh 210.37 in7123.9 mb 0.10 in2.5 mm 0.12 in3.0 mm 0.10 in2.5 mm
07:45 AM 70.0°F21.1°C -35.1°F-37.3°C 1% 1.0 mph S1.6 kmh S 9.0 mph14.5 kmh 210.38 in7124.3 mb 0.09 in2.3 mm 0.00 in0.0 mm 0.09 in2.3 mm
07:40 AM 71.0°F21.7°C -34.5°F-36.9°C 1% Calm Calm 9.0 mph14.5 kmh 210.38 in7124.3 mb 0.09 in2.3 mm 0.12 in3.0 mm 0.09 in2.3 mm
07:35 AM 70.0°F21.1°C -35.1°F-37.3°C 1% Calm Calm 8.0 mph12.9 kmh 210.38 in7124.3 mb 0.08 in2.0 mm 0.12 in3.0 mm 0.08 in2.0 mm
07:30 AM 71.0°F21.7°C -34.5°F-36.9°C 1% 1.0 mph ESE1.6 kmh ESE 8.0 mph12.9 kmh 210.38 in7124.3 mb 0.07 in1.8 mm 0.00 in0.0 mm 0.07 in1.8 mm
07:25 AM 71.0°F21.7°C -34.5°F-36.9°C 1% 1.0 mph ESE1.6 kmh ESE 8.0 mph12.9 kmh 210.38 in7124.3 mb 0.07 in1.8 mm 0.12 in3.0 mm 0.07 in1.8 mm
07:20 AM 71.0°F21.7°C -34.5°F-36.9°C 1% 3.0 mph ESE4.8 kmh ESE 8.0 mph12.9 kmh 210.38 in7124.3 mb 0.06 in1.5 mm 0.12 in3.0 mm 0.06 in1.5 mm
07:15 AM 71.0°F21.7°C -34.5°F-36.9°C 1% 2.0 mph S3.2 kmh S 8.0 mph12.9 kmh 210.37 in7123.9 mb 0.05 in1.3 mm 0.00 in0.0 mm 0.05 in1.3 mm
07:10 AM 71.0°F21.7°C -34.5°F-36.9°C 1% 4.0 mph E6.4 kmh E 8.0 mph12.9 kmh 210.37 in7123.9 mb 0.05 in1.3 mm 0.12 in3.0 mm 0.05 in1.3 mm
07:05 AM 71.0°F21.7°C -34.5°F-36.9°C 1% Calm Calm 8.0 mph12.9 kmh 210.37 in7123.9 mb 0.04 in1.0 mm 0.12 in3.0 mm 0.04 in1.0 mm
07:00 AM 71.0°F21.7°C -34.5°F-36.9°C 1% 1.0 mph NNE1.6 kmh NNE 8.0 mph12.9 kmh 210.37 in7123.9 mb 0.03 in0.8 mm 0.00 in0.0 mm 0.03 in0.8 mm
06:55 AM 71.0°F21.7°C -34.5°F-36.9°C 1% 1.0 mph N1.6 kmh N 8.0 mph12.9 kmh 210.37 in7123.9 mb 0.03 in0.8 mm 0.00 in0.0 mm 0.03 in0.8 mm
06:50 AM 71.0°F21.7°C -34.5°F-36.9°C 1% Calm Calm 8.0 mph12.9 kmh 210.37 in7123.9 mb 0.03 in0.8 mm 0.12 in3.0 mm 0.03 in0.8 mm
06:45 AM 71.0°F21.7°C -34.5°F-36.9°C 1% 2.0 mph ESE3.2 kmh ESE 8.0 mph12.9 kmh 210.37 in7123.9 mb 0.02 in0.5 mm 0.00 in0.0 mm 0.02 in0.5 mm
06:40 AM 71.0°F21.7°C -34.5°F-36.9°C 1% 2.0 mph ESE3.2 kmh ESE 8.0 mph12.9 kmh 210.37 in7123.9 mb 0.02 in0.5 mm 0.00 in0.0 mm 0.02 in0.5 mm
06:35 AM 71.0°F21.7°C -34.5°F-36.9°C 1% 3.0 mph SSE4.8 kmh SSE 8.0 mph12.9 kmh 210.37 in7123.9 mb 0.02 in0.5 mm 0.00 in0.0 mm 0.02 in0.5 mm
06:25 AM 71.0°F21.7°C -34.5°F-36.9°C 1% Calm Calm 8.0 mph12.9 kmh 210.37 in7123.9 mb 0.02 in0.5 mm 0.00 in0.0 mm 0.02 in0.5 mm
06:20 AM 71.0°F21.7°C -34.5°F-36.9°C 1% 2.0 mph SSE3.2 kmh SSE 8.0 mph12.9 kmh 210.37 in7123.9 mb 0.02 in0.5 mm 0.12 in3.0 mm 0.02 in0.5 mm
06:15 AM 71.0°F21.7°C -34.5°F-36.9°C 1% 3.0 mph SE4.8 kmh SE 8.0 mph12.9 kmh 210.37 in7123.9 mb 0.01 in0.3 mm 0.00 in0.0 mm 0.01 in0.3 mm
06:10 AM 71.0°F21.7°C -34.5°F-36.9°C 1% Calm Calm 8.0 mph12.9 kmh 210.37 in7123.9 mb 0.01 in0.3 mm 0.00 in0.0 mm 0.01 in0.3 mm
06:05 AM 71.0°F21.7°C -34.5°F-36.9°C 1% 3.0 mph SE4.8 kmh SE 8.0 mph12.9 kmh 210.37 in7123.9 mb 0.01 in0.3 mm 0.00 in0.0 mm 0.01 in0.3 mm
06:00 AM 71.0°F21.7°C -34.5°F-36.9°C 1% 1.0 mph S1.6 kmh S 8.0 mph12.9 kmh 210.37 in7123.9 mb 0.01 in0.3 mm 0.00 in0.0 mm 0.01 in0.3 mm
05:55 AM 71.0°F21.7°C -34.5°F-36.9°C 1% 5.0 mph E8.0 kmh E 8.0 mph12.9 kmh 210.38 in7124.3 mb 0.01 in0.3 mm 0.00 in0.0 mm 0.01 in0.3 mm
05:50 AM 71.0°F21.7°C -34.5°F-36.9°C 1% Calm Calm 8.0 mph12.9 kmh 210.38 in7124.3 mb 0.01 in0.3 mm 0.00 in0.0 mm 0.01 in0.3 mm
05:45 AM 71.0°F21.7°C -34.5°F-36.9°C 1% Calm Calm 8.0 mph12.9 kmh 210.38 in7124.3 mb 0.01 in0.3 mm 0.00 in0.0 mm 0.01 in0.3 mm
05:40 AM 71.0°F21.7°C -34.5°F-36.9°C 1% Calm Calm 8.0 mph12.9 kmh 210.38 in7124.3 mb 0.01 in0.3 mm 0.00 in0.0 mm 0.01 in0.3 mm
05:35 AM 71.0°F21.7°C -34.5°F-36.9°C 1% 1.0 mph W1.6 kmh W 8.0 mph12.9 kmh 210.37 in7123.9 mb 0.01 in0.3 mm 0.00 in0.0 mm 0.01 in0.3 mm
05:30 AM 71.0°F21.7°C -34.5°F-36.9°C 1% Calm Calm 8.0 mph12.9 kmh 210.37 in7123.9 mb 0.01 in0.3 mm 0.12 in3.0 mm 0.01 in0.3 mm
05:25 AM 71.0°F21.7°C -34.5°F-36.9°C 1% 2.0 mph E3.2 kmh E 8.0 mph12.9 kmh 210.38 in7124.3 mb 0.00 in0.0 mm 0.00 in0.0 mm 0.00 in0.0 mm
05:20 AM 71.0°F21.7°C -34.5°F-36.9°C 1% 1.0 mph WSW1.6 kmh WSW 8.0 mph12.9 kmh 210.38 in7124.3 mb 0.00 in0.0 mm 0.00 in0.0 mm 0.00 in0.0 mm
05:15 AM 71.0°F21.7°C -34.5°F-36.9°C 1% Calm Calm 8.0 mph12.9 kmh 210.37 in7123.9 mb 0.00 in0.0 mm 0.00 in0.0 mm 0.00 in0.0 mm
05:10 AM 71.0°F21.7°C -34.5°F-36.9°C 1% Calm Calm 8.0 mph12.9 kmh 210.37 in7123.9 mb 0.00 in0.0 mm 0.00 in0.0 mm 0.00 in0.0 mm
05:05 AM 72.0°F22.2°C -33.9°F-36.6°C 1% 3.0 mph E4.8 kmh E 8.0 mph12.9 kmh 210.37 in7123.9 mb 0.00 in0.0 mm 0.00 in0.0 mm 0.00 in0.0 mm
05:00 AM 72.0°F22.2°C -33.9°F-36.6°C 1% Calm Calm 8.0 mph12.9 kmh 210.37 in7123.9 mb 0.00 in0.0 mm 0.00 in0.0 mm 0.00 in0.0 mm
04:55 AM 72.0°F22.2°C -33.9°F-36.6°C 1% Calm Calm 8.0 mph12.9 kmh 210.37 in7123.9 mb 0.00 in0.0 mm 0.00 in0.0 mm 0.00 in0.0 mm
04:50 AM 72.0°F22.2°C -33.9°F-36.6°C 1% 2.0 mph SE3.2 kmh SE 8.0 mph12.9 kmh 210.37 in7123.9 mb 0.00 in0.0 mm 0.00 in0.0 mm 0.00 in0.0 mm
04:45 AM 72.0°F22.2°C -33.9°F-36.6°C 1% Calm Calm 8.0 mph12.9 kmh 210.38 in7124.3 mb 0.00 in0.0 mm 0.00 in0.0 mm 0.00 in0.0 mm
04:40 AM 72.0°F22.2°C -33.9°F-36.6°C 1% 2.0 mph SSW3.2 kmh SSW 8.0 mph12.9 kmh 210.38 in7124.3 mb 0.00 in0.0 mm 0.00 in0.0 mm 0.00 in0.0 mm
04:35 AM 72.0°F22.2°C -33.9°F-36.6°C 1% Calm Calm 8.0 mph12.9 kmh 210.38 in7124.3 mb 0.00 in0.0 mm 0.00 in0.0 mm 0.00 in0.0 mm
04:30 AM 72.0°F22.2°C -33.9°F-36.6°C 1% Calm Calm 8.0 mph12.9 kmh 210.38 in7124.3 mb 0.00 in0.0 mm 0.00 in0.0 mm 0.00 in0.0 mm
04:25 AM 72.0°F22.2°C -33.9°F-36.6°C 1% 1.0 mph E1.6 kmh E 8.0 mph12.9 kmh 210.38 in7124.3 mb 0.00 in0.0 mm 0.00 in0.0 mm 0.00 in0.0 mm
04:20 AM 72.0°F22.2°C -33.9°F-36.6°C 1% 3.0 mph SE4.8 kmh SE 8.0 mph12.9 kmh 210.38 in7124.3 mb 0.00 in0.0 mm 0.00 in0.0 mm 0.00 in0.0 mm
04:15 AM 72.0°F22.2°C -33.9°F-36.6°C 1% Calm Calm 8.0 mph12.9 kmh 210.38 in7124.3 mb 0.00 in0.0 mm 0.00 in0.0 mm 0.00 in0.0 mm
04:10 AM 72.0°F22.2°C -33.9°F-36.6°C 1% Calm Calm 8.0 mph12.9 kmh 210.38 in7124.3 mb 0.00 in0.0 mm 0.00 in0.0 mm 0.00 in0.0 mm
04:05 AM 73.0°F22.8°C -33.3°F-36.3°C 1% 4.0 mph SE6.4 kmh SE 8.0 mph12.9 kmh 210.39 in7124.6 mb 0.00 in0.0 mm 0.00 in0.0 mm 0.00 in0.0 mm
04:00 AM 73.0°F22.8°C -33.3°F-36.3°C 1% 1.0 mph S1.6 kmh S 8.0 mph12.9 kmh 210.39 in7124.6 mb 0.00 in0.0 mm 0.00 in0.0 mm 0.00 in0.0 mm
03:55 AM 73.0°F22.8°C -33.3°F-36.3°C 1% 1.0 mph SW1.6 kmh SW 8.0 mph12.9 kmh 210.39 in7124.6 mb 0.00 in0.0 mm 0.00 in0.0 mm 0.00 in0.0 mm
03:50 AM 73.0°F22.8°C -33.3°F-36.3°C 1% 1.0 mph SW1.6 kmh SW 8.0 mph12.9 kmh 210.39 in7124.6 mb 0.00 in0.0 mm 0.00 in0.0 mm 0.00 in0.0 mm
03:45 AM 73.0°F22.8°C -33.3°F-36.3°C 1% 2.0 mph SE3.2 kmh SE 8.0 mph12.9 kmh 210.39 in7124.6 mb 0.00 in0.0 mm 0.00 in0.0 mm 0.00 in0.0 mm
03:40 AM 73.0°F22.8°C -33.3°F-36.3°C 1% Calm Calm 8.0 mph12.9 kmh 210.39 in7124.6 mb 0.00 in0.0 mm 0.00 in0.0 mm 0.00 in0.0 mm
03:35 AM 73.0°F22.8°C -33.3°F-36.3°C 1% Calm Calm 8.0 mph12.9 kmh 210.39 in7124.6 mb 0.00 in0.0 mm 0.00 in0.0 mm 0.00 in0.0 mm
03:30 AM 73.0°F22.8°C -33.3°F-36.3°C 1% 1.0 mph SE1.6 kmh SE 8.0 mph12.9 kmh 210.39 in7124.6 mb 0.00 in0.0 mm 0.00 in0.0 mm 0.00 in0.0 mm
03:25 AM 73.0°F22.8°C -33.3°F-36.3°C 1% 2.0 mph ESE3.2 kmh ESE 8.0 mph12.9 kmh 210.39 in7124.6 mb 0.00 in0.0 mm 0.00 in0.0 mm 0.00 in0.0 mm
03:20 AM 73.0°F22.8°C -12.5°F-24.7°C 3% Calm Calm 8.0 mph12.9 kmh 210.39 in7124.6 mb 0.00 in0.0 mm 0.00 in0.0 mm 0.00 in0.0 mm
03:15 AM 73.0°F22.8°C 1.8°F-16.8°C 6% 4.0 mph ESE6.4 kmh ESE 8.0 mph12.9 kmh 210.39 in7124.6 mb 0.00 in0.0 mm 0.00 in0.0 mm 0.00 in0.0 mm
03:10 AM 73.0°F22.8°C 5.2°F-14.9°C 7% Calm Calm 8.0 mph12.9 kmh 210.39 in7124.6 mb 0.00 in0.0 mm 0.00 in0.0 mm 0.00 in0.0 mm
03:05 AM 73.0°F22.8°C 10.7°F-11.8°C 9% 2.0 mph SE3.2 kmh SE 8.0 mph12.9 kmh 210.40 in7125.0 mb 0.00 in0.0 mm 0.00 in0.0 mm 0.00 in0.0 mm
03:00 AM 73.0°F22.8°C 13.1°F-10.5°C 10% Calm Calm 8.0 mph12.9 kmh 210.40 in7125.0 mb 0.00 in0.0 mm 0.00 in0.0 mm 0.00 in0.0 mm
02:55 AM 73.0°F22.8°C 15.3°F-9.3°C 11% 4.0 mph S6.4 kmh S 8.0 mph12.9 kmh 210.39 in7124.6 mb 0.00 in0.0 mm 0.00 in0.0 mm 0.00 in0.0 mm
02:50 AM 73.0°F22.8°C 10.7°F-11.8°C 9% Calm Calm 8.0 mph12.9 kmh 210.39 in7124.6 mb 0.00 in0.0 mm 0.00 in0.0 mm 0.00 in0.0 mm
02:45 AM 74.0°F23.3°C 11.5°F-11.4°C 9% Calm Calm 8.0 mph12.9 kmh 210.39 in7124.6 mb 0.00 in0.0 mm 0.00 in0.0 mm 0.00 in0.0 mm
02:40 AM 74.0°F23.3°C 2.6°F-16.3°C 6% 2.0 mph ESE3.2 kmh ESE 8.0 mph12.9 kmh 210.39 in7124.6 mb 0.00 in0.0 mm 0.00 in0.0 mm 0.00 in0.0 mm
02:35 AM 74.0°F23.3°C -11.9°F-24.4°C 3% Calm Calm 8.0 mph12.9 kmh 210.40 in7125.0 mb 0.00 in0.0 mm 0.00 in0.0 mm 0.00 in0.0 mm
02:30 AM 74.0°F23.3°C -32.7°F-35.9°C 1% 1.0 mph S1.6 kmh S 8.0 mph12.9 kmh 210.40 in7125.0 mb 0.00 in0.0 mm 0.00 in0.0 mm 0.00 in0.0 mm
02:25 AM 74.0°F23.3°C -32.7°F-35.9°C 1% 1.0 mph S1.6 kmh S 8.0 mph12.9 kmh 210.39 in7124.6 mb 0.00 in0.0 mm 0.00 in0.0 mm 0.00 in0.0 mm
02:20 AM 74.0°F23.3°C -32.7°F-35.9°C 1% 1.0 mph SE1.6 kmh SE 8.0 mph12.9 kmh 210.39 in7124.6 mb 0.00 in0.0 mm 0.00 in0.0 mm 0.00 in0.0 mm
02:15 AM 74.0°F23.3°C -32.7°F-35.9°C 1% Calm Calm 8.0 mph12.9 kmh 210.39 in7124.6 mb 0.00 in0.0 mm 0.00 in0.0 mm 0.00 in0.0 mm
02:10 AM 74.0°F23.3°C -32.7°F-35.9°C 1% Calm Calm 8.0 mph12.9 kmh 210.39 in7124.6 mb 0.00 in0.0 mm 0.00 in0.0 mm 0.00 in0.0 mm
02:05 AM 74.0°F23.3°C -32.7°F-35.9°C 1% Calm Calm 8.0 mph12.9 kmh 210.40 in7125.0 mb 0.00 in0.0 mm 0.00 in0.0 mm 0.00 in0.0 mm
02:00 AM 74.0°F23.3°C -32.7°F-35.9°C 1% Calm Calm 8.0 mph12.9 kmh 210.40 in7125.0 mb 0.00 in0.0 mm 0.00 in0.0 mm 0.00 in0.0 mm
01:55 AM 74.0°F23.3°C -32.7°F-35.9°C 1% Calm Calm 8.0 mph12.9 kmh 210.40 in7125.0 mb 0.00 in0.0 mm 0.00 in0.0 mm 0.00 in0.0 mm
01:50 AM 74.0°F23.3°C -32.7°F-35.9°C 1% 2.0 mph SSE3.2 kmh SSE 8.0 mph12.9 kmh 210.40 in7125.0 mb 0.00 in0.0 mm 0.00 in0.0 mm 0.00 in0.0 mm
01:45 AM 74.0°F23.3°C -32.7°F-35.9°C 1% Calm Calm 8.0 mph12.9 kmh 210.41 in7125.3 mb 0.00 in0.0 mm 0.00 in0.0 mm 0.00 in0.0 mm
01:40 AM 74.0°F23.3°C -32.7°F-35.9°C 1% 2.0 mph SE3.2 kmh SE 8.0 mph12.9 kmh 210.41 in7125.3 mb 0.00 in0.0 mm 0.00 in0.0 mm 0.00 in0.0 mm
01:35 AM 74.0°F23.3°C -32.7°F-35.9°C 1% 3.0 mph SSE4.8 kmh SSE 8.0 mph12.9 kmh 210.41 in7125.3 mb 0.00 in0.0 mm 0.00 in0.0 mm 0.00 in0.0 mm
01:30 AM 74.0°F23.3°C -32.7°F-35.9°C 1% 2.0 mph SSE3.2 kmh SSE 8.0 mph12.9 kmh 210.41 in7125.3 mb 0.00 in0.0 mm 0.00 in0.0 mm 0.00 in0.0 mm
01:25 AM 74.0°F23.3°C -32.7°F-35.9°C 1% 6.0 mph SSW9.7 kmh SSW 8.0 mph12.9 kmh 210.42 in7125.6 mb 0.00 in0.0 mm 0.00 in0.0 mm 0.00 in0.0 mm
01:20 AM 74.0°F23.3°C -32.7°F-35.9°C 1% 5.0 mph S8.0 kmh S 7.0 mph11.3 kmh 210.42 in7125.6 mb 0.00 in0.0 mm 0.00 in0.0 mm 0.00 in0.0 mm
01:15 AM 74.0°F23.3°C -32.7°F-35.9°C 1% 5.0 mph SSE8.0 kmh SSE 6.0 mph9.7 kmh 210.42 in7125.6 mb 0.00 in0.0 mm 0.00 in0.0 mm 0.00 in0.0 mm
01:10 AM 74.0°F23.3°C -32.7°F-35.9°C 1% 3.0 mph SSE4.8 kmh SSE 6.0 mph9.7 kmh 210.42 in7125.6 mb 0.00 in0.0 mm 0.00 in0.0 mm 0.00 in0.0 mm
01:05 AM 74.0°F23.3°C -32.7°F-35.9°C 1% 2.0 mph SSE3.2 kmh SSE 6.0 mph9.7 kmh 210.42 in7125.6 mb 0.00 in0.0 mm 0.00 in0.0 mm 0.00 in0.0 mm
01:00 AM 74.0°F23.3°C -32.7°F-35.9°C 1% 6.0 mph SE9.7 kmh SE 6.0 mph9.7 kmh 210.42 in7125.6 mb 0.00 in0.0 mm 0.00 in0.0 mm 0.00 in0.0 mm
12:55 AM 74.0°F23.3°C -32.7°F-35.9°C 1% 4.0 mph SSE6.4 kmh SSE 6.0 mph9.7 kmh 210.41 in7125.3 mb 0.00 in0.0 mm 0.00 in0.0 mm 0.00 in0.0 mm
12:50 AM 75.0°F23.9°C -32.1°F-35.6°C 1% Calm Calm 6.0 mph9.7 kmh 210.41 in7125.3 mb 0.00 in0.0 mm 0.00 in0.0 mm 0.00 in0.0 mm
12:45 AM 75.0°F23.9°C -32.1°F-35.6°C 1% Calm Calm 6.0 mph9.7 kmh 210.41 in7125.3 mb 0.00 in0.0 mm 0.00 in0.0 mm 0.00 in0.0 mm
12:40 AM 75.0°F23.9°C -32.1°F-35.6°C 1% 1.0 mph SSE1.6 kmh SSE 6.0 mph9.7 kmh 210.41 in7125.3 mb 0.00 in0.0 mm 0.00 in0.0 mm 0.00 in0.0 mm
12:35 AM 75.0°F23.9°C -32.1°F-35.6°C 1% 1.0 mph S1.6 kmh S 6.0 mph9.7 kmh 210.41 in7125.3 mb 0.00 in0.0 mm 0.00 in0.0 mm 0.00 in0.0 mm
12:30 AM 75.0°F23.9°C -32.1°F-35.6°C 1% 3.0 mph SW4.8 kmh SW 6.0 mph9.7 kmh 210.41 in7125.3 mb 0.00 in0.0 mm 0.00 in0.0 mm 0.00 in0.0 mm
12:25 AM 75.0°F23.9°C -32.1°F-35.6°C 1% 1.0 mph S1.6 kmh S 6.0 mph9.7 kmh 210.41 in7125.3 mb 0.00 in0.0 mm 0.00 in0.0 mm 0.00 in0.0 mm
12:20 AM 75.0°F23.9°C -32.1°F-35.6°C 1% 1.0 mph S1.6 kmh S 6.0 mph9.7 kmh 210.41 in7125.3 mb 0.00 in0.0 mm 0.00 in0.0 mm 0.00 in0.0 mm
12:15 AM 75.0°F23.9°C -32.1°F-35.6°C 1% 5.0 mph SSE8.0 kmh SSE 6.0 mph9.7 kmh 210.41 in7125.3 mb 0.00 in0.0 mm 0.00 in0.0 mm 0.00 in0.0 mm
12:10 AM 75.0°F23.9°C -32.1°F-35.6°C 1% 4.0 mph S6.4 kmh S 6.0 mph9.7 kmh 210.41 in7125.3 mb 0.00 in0.0 mm 0.00 in0.0 mm 0.00 in0.0 mm
12:05 AM 75.0°F23.9°C -32.1°F-35.6°C 1% 3.0 mph SSE4.8 kmh SSE 5.0 mph8.0 kmh 210.41 in7125.3 mb 0.00 in0.0 mm 0.00 in0.0 mm 0.00 in0.0 mm
12:00 AM 75.0°F23.9°C -32.1°F-35.6°C 1% 2.0 mph SSE3.2 kmh SSE 2.0 mph3.2 kmh 210.41 in7125.3 mb 0.00 in0.0 mm 0.00 in0.0 mm 0.00 in0.0 mm